Time;durP1;ratioP1;P1;durP2;ratioP2;P2;SDS_P1;SDS_P2;PMS_P1;PMS_P2;Temp;Humidity;BMP_temperature;BMP_pressure;BME280_temperature;BME280_humidity;BME280_pressure;Samples;Min_cycle;Max_cycle;Signal;HPM_P1;HPM_P2
2024/02/10 02:46:25;;;;;;;6.95;3.75;;;;;;;7.41;100.00;98179.19;6239160;22;20023;-86
2024/02/10 02:48:56;;;;;;;5.60;2.42;;;;;;;7.43;100.00;98178.78;6220094;23;20091;-86
2024/02/10 02:51:25;;;;;;;9.27;3.38;;;;;;;7.44;100.00;98194.47;6231320;23;20016;-86
2024/02/10 02:54:01;;;;;;;9.02;3.83;;;;;;;7.51;100.00;98181.00;6196875;23;20033;-86
2024/02/10 02:56:26;;;;;;;5.55;2.45;;;;;;;7.46;100.00;98180.66;6195064;23;20019;-87
2024/02/10 02:58:54;;;;;;;8.32;3.88;;;;;;;7.49;100.00;98194.03;6248372;23;20012;-86
2024/02/10 03:01:22;;;;;;;7.75;2.83;;;;;;;7.53;100.00;98183.31;6248821;23;20078;-86
2024/02/10 03:03:49;;;;;;;7.65;3.53;;;;;;;7.45;100.00;98174.56;6221108;23;20015;-87
2024/02/10 03:06:18;;;;;;;8.93;3.65;;;;;;;7.58;100.00;98172.94;6222059;23;20070;-87
2024/02/10 03:08:45;;;;;;;7.18;2.72;;;;;;;7.59;100.00;98179.78;6218929;23;20057;-89
2024/02/10 03:11:18;;;;;;;13.40;4.20;;;;;;;7.57;100.00;98176.00;6245769;23;20000;-86
2024/02/10 03:13:47;;;;;;;7.03;3.10;;;;;;;7.62;100.00;98181.69;6220773;23;20046;-86
2024/02/10 03:16:14;;;;;;;5.97;2.75;;;;;;;7.54;100.00;98171.44;6221477;23;20090;-87
2024/02/10 03:18:45;;;;;;;8.60;3.10;;;;;;;7.52;100.00;98168.38;6221197;23;20022;-86
2024/02/10 03:21:14;;;;;;;7.25;2.92;;;;;;;7.51;100.00;98167.63;6248776;23;20010;-87
2024/02/10 03:23:40;;;;;;;8.82;2.80;;;;;;;7.47;100.00;98174.19;6248946;23;20035;-87
2024/02/10 03:26:06;;;;;;;7.35;2.72;;;;;;;7.56;100.00;98161.09;6222791;23;20226;-86
2024/02/10 03:28:33;;;;;;;9.25;2.80;;;;;;;7.49;100.00;98164.56;6220716;23;20127;-86
2024/02/10 03:31:02;;;;;;;6.60;2.70;;;;;;;7.48;100.00;98162.28;6248208;23;20012;-86
2024/02/10 03:33:31;;;;;;;9.32;3.42;;;;;;;7.52;100.00;98169.16;6220845;23;20008;-87
2024/02/10 03:35:57;;;;;;;9.07;3.38;;;;;;;7.46;100.00;98159.25;6221368;23;20004;-86
2024/02/10 03:38:23;;;;;;;8.38;3.53;;;;;;;7.45;100.00;98163.88;6196591;23;20023;-87
2024/02/10 03:40:49;;;;;;;11.75;4.13;;;;;;;7.37;100.00;98162.41;6249562;23;20019;-86
2024/02/10 03:43:14;;;;;;;9.25;3.35;;;;;;;7.43;100.00;98168.84;6218684;23;20000;-89
2024/02/10 03:45:40;;;;;;;8.10;4.03;;;;;;;7.50;100.00;98168.78;6248372;23;20011;-86
2024/02/10 03:48:09;;;;;;;7.63;3.80;;;;;;;7.39;100.00;98168.13;6221665;23;20012;-87
2024/02/10 03:50:34;;;;;;;10.15;3.83;;;;;;;7.45;100.00;98174.56;6257266;23;20024;-87
2024/02/10 03:53:00;;;;;;;10.18;3.75;;;;;;;7.54;100.00;98176.78;6248485;23;20082;-86
2024/02/10 03:55:26;;;;;;;7.30;3.38;;;;;;;7.60;100.00;98184.00;6248482;23;20011;-87
2024/02/10 03:57:53;;;;;;;9.45;3.63;;;;;;;7.59;100.00;98179.06;6222031;23;20505;-87
2024/02/10 04:00:25;;;;;;;11.15;3.45;;;;;;;7.57;100.00;98176.00;6221819;23;20008;-86
2024/02/10 04:02:54;;;;;;;11.82;3.67;;;;;;;7.67;100.00;98175.91;6221675;23;20012;-87
2024/02/10 04:05:20;;;;;;;3.75;2.05;;;;;;;7.68;100.00;98192.75;6248885;23;20000;-86
2024/02/10 04:07:49;;;;;;;9.38;3.35;;;;;;;7.64;100.00;98184.75;6201583;23;20019;-87
2024/02/10 04:10:16;;;;;;;11.23;3.22;;;;;;;7.59;100.00;98187.81;6228546;23;20034;-86
2024/02/10 04:12:42;;;;;;;9.32;3.25;;;;;;;7.59;100.00;98189.75;6221905;23;20603;-86
2024/02/10 04:15:11;;;;;;;5.72;2.97;;;;;;;7.65;100.00;98185.47;6220910;23;20043;-86
2024/02/10 04:17:40;;;;;;;9.07;3.13;;;;;;;7.59;100.00;98185.16;6219539;23;20461;-86
2024/02/10 04:20:07;;;;;;;9.85;3.92;;;;;;;7.69;100.00;98184.31;6246234;23;20079;-87
2024/02/10 04:22:37;;;;;;;8.55;3.45;;;;;;;7.67;100.00;98180.50;6224932;23;20000;-86
2024/02/10 04:25:09;;;;;;;13.00;4.05;;;;;;;7.65;100.00;98182.81;6252901;23;20039;-86
2024/02/10 04:27:35;;;;;;;5.70;3.08;;;;;;;7.51;100.00;98177.59;6196583;23;20004;-85
2024/02/10 04:30:06;;;;;;;9.40;3.65;;;;;;;7.55;100.00;98181.00;6231336;23;20011;-86
2024/02/10 04:32:42;;;;;;;6.40;2.55;;;;;;;7.67;100.00;98186.63;6220760;23;20034;-87
2024/02/10 04:35:11;;;;;;;7.15;3.22;;;;;;;7.72;100.00;98188.88;6247482;23;20022;-86
2024/02/10 04:37:36;;;;;;;11.73;4.20;;;;;;;7.73;100.00;98194.97;6225012;23;20000;-87
2024/02/10 04:40:03;;;;;;;10.77;5.00;;;;;;;7.71;100.00;98198.06;6225752;23;20015;-87
2024/02/10 04:42:29;;;;;;;10.85;3.28;;;;;;;7.85;100.00;98184.56;6222264;23;20338;-86
2024/02/10 04:44:58;;;;;;;8.68;3.55;;;;;;;7.81;100.00;98178.47;6248293;23;20011;-86
2024/02/10 04:47:23;;;;;;;8.00;3.65;;;;;;;7.72;100.00;98178.16;6196704;23;20011;-87
2024/02/10 04:49:49;;;;;;;9.40;3.55;;;;;;;7.68;100.00;98187.38;6196479;23;20016;-87
2024/02/10 04:52:18;;;;;;;6.20;3.20;;;;;;;7.73;100.00;98184.28;6196213;23;20015;-87
2024/02/10 04:54:44;;;;;;;9.85;3.42;;;;;;;7.73;100.00;98187.72;6221425;23;20016;-87
2024/02/10 04:57:09;;;;;;;7.05;3.00;;;;;;;7.76;100.00;98180.81;6248044;23;20008;-86
2024/02/10 04:59:35;;;;;;;6.03;3.15;;;;;;;7.81;100.00;98189.19;6221780;23;20422;-86
2024/02/10 05:02:02;;;;;;;6.45;3.30;;;;;;;7.70;100.00;98188.53;6221445;23;20043;-87
2024/02/10 05:04:27;;;;;;;8.85;3.83;;;;;;;7.77;100.00;98185.75;6247440;23;20076;-86
2024/02/10 05:06:53;;;;;;;6.07;3.47;;;;;;;7.78;100.00;98186.53;6221645;23;20448;-86
2024/02/10 05:09:18;;;;;;;7.63;2.78;;;;;;;7.85;100.00;98184.56;6247687;23;20015;-86
2024/02/10 05:11:44;;;;;;;8.35;3.47;;;;;;;7.85;100.00;98189.91;6221138;23;20012;-87
2024/02/10 05:14:10;;;;;;;7.40;4.03;;;;;;;7.87;100.00;98192.94;6195618;23;20038;-86
2024/02/10 05:16:36;;;;;;;6.60;3.08;;;;;;;7.74;100.00;98201.88;6249575;23;20023;-87
2024/02/10 05:19:02;;;;;;;8.60;2.28;;;;;;;7.78;100.00;98194.56;6217923;23;20020;-87
2024/02/10 05:21:33;;;;;;;5.65;3.35;;;;;;;7.78;100.00;98195.31;6195901;23;20019;-87
2024/02/10 05:24:10;;;;;;;7.03;3.65;;;;;;;7.74;100.00;98196.53;6219608;23;20015;-86
2024/02/10 05:26:37;;;;;;;9.43;3.47;;;;;;;7.80;100.00;98197.63;6247201;23;20004;-87
2024/02/10 05:29:07;;;;;;;9.85;3.75;;;;;;;7.82;100.00;98192.63;6220340;23;20078;-87
2024/02/10 05:31:38;;;;;;;5.70;3.22;;;;;;;7.83;100.00;98194.13;6246913;23;20078;-87
2024/02/10 05:34:04;;;;;;;8.60;3.25;;;;;;;7.91;100.00;98195.59;6219444;23;20008;-86
2024/02/10 05:36:30;;;;;;;10.30;3.35;;;;;;;7.92;100.00;98192.50;6220446;23;20027;-86
2024/02/10 05:38:59;;;;;;;11.80;4.00;;;;;;;7.91;100.00;98203.63;6247730;23;20031;-86
2024/02/10 05:41:24;;;;;;;8.15;2.95;;;;;;;7.92;100.00;98197.88;6220489;23;20004;-87
2024/02/10 05:43:52;;;;;;;10.48;3.75;;;;;;;8.00;100.00;98210.03;6247353;23;20040;-86
2024/02/10 05:46:17;;;;;;;12.63;2.88;;;;;;;8.01;100.00;98208.13;6215752;23;20087;-86
2024/02/10 05:48:43;;;;;;;9.32;3.50;;;;;;;7.98;100.00;98206.22;6215117;23;20020;-86
2024/02/10 05:51:11;;;;;;;7.88;3.10;;;;;;;7.99;100.00;98205.09;6215930;23;20016;-87
2024/02/10 05:53:37;;;;;;;10.35;3.45;;;;;;;7.95;100.00;98204.34;6188132;23;20091;-87
2024/02/10 05:56:08;;;;;;;8.68;2.85;;;;;;;8.01;100.00;98205.44;6215651;23;20083;-87
2024/02/10 05:58:34;;;;;;;7.30;2.83;;;;;;;8.00;100.00;98211.97;6215926;23;20079;-87
2024/02/10 06:00:59;;;;;;;6.05;3.22;;;;;;;7.95;100.00;98202.44;6217415;23;20718;-87
2024/02/10 06:03:29;;;;;;;9.27;3.25;;;;;;;8.00;100.00;98206.59;6216261;23;20058;-87
2024/02/10 06:05:54;;;;;;;11.20;3.45;;;;;;;7.97;100.00;98220.81;6190616;23;20099;-87
2024/02/10 06:08:20;;;;;;;8.07;3.65;;;;;;;7.95;100.00;98212.41;6214863;23;20086;-87
2024/02/10 06:10:45;;;;;;;12.82;4.55;;;;;;;7.94;100.00;98208.19;6215937;23;20017;-86
2024/02/10 06:13:14;;;;;;;8.88;3.50;;;;;;;7.97;100.00;98210.09;6216917;23;20019;-86
2024/02/10 06:15:40;;;;;;;8.82;3.75;;;;;;;7.97;100.00;98220.81;6216678;23;20487;-87
2024/02/10 06:18:07;;;;;;;5.85;2.63;;;;;;;8.04;100.00;98213.44;6190232;23;20340;-87
2024/02/10 06:20:33;;;;;;;11.35;4.13;;;;;;;8.05;100.00;98214.22;6214734;23;20015;-87
2024/02/10 06:22:58;;;;;;;15.48;3.53;;;;;;;8.04;100.00;98226.84;6215161;23;20474;-87
2024/02/10 06:25:27;;;;;;;8.38;2.88;;;;;;;8.05;100.00;98217.63;6215078;23;20009;-87
2024/02/10 06:27:54;;;;;;;9.70;4.15;;;;;;;7.98;100.00;98223.06;6215248;23;20009;-87
2024/02/10 06:30:21;;;;;;;10.98;3.90;;;;;;;7.98;100.00;98225.00;6216049;23;20447;-87
2024/02/10 06:32:48;;;;;;;6.38;3.08;;;;;;;7.98;100.00;98235.72;6214407;23;20402;-87
2024/02/10 06:35:15;;;;;;;7.82;2.80;;;;;;;7.97;100.00;98231.53;6214894;23;20016;-87
2024/02/10 06:37:49;;;;;;;8.00;3.38;;;;;;;8.00;100.00;98233.41;6213984;23;19996;-87
2024/02/10 06:40:15;;;;;;;15.02;2.85;;;;;;;8.06;100.00;98239.84;6215117;23;20020;-87
2024/02/10 06:42:48;;;;;;;10.35;3.47;;;;;;;8.05;100.00;98243.69;6214876;23;20103;-87
2024/02/10 06:45:15;;;;;;;6.13;2.72;;;;;;;8.04;100.00;98247.53;6230820;23;20012;-87
2024/02/10 06:47:41;;;;;;;7.18;2.55;;;;;;;8.05;100.00;98241.03;6246079;23;19996;-87
2024/02/10 06:50:07;;;;;;;6.70;2.92;;;;;;;8.03;100.00;98246.75;6219954;23;20070;-87
2024/02/10 06:52:34;;;;;;;6.25;2.70;;;;;;;8.03;100.00;98246.75;6217888;23;20020;-87
2024/02/10 06:55:03;;;;;;;7.43;2.97;;;;;;;8.10;100.00;98245.94;6246712;23;20008;-87
2024/02/10 06:57:31;;;;;;;8.40;3.10;;;;;;;8.01;100.00;98243.72;6246615;23;20008;-87
2024/02/10 06:59:57;;;;;;;8.43;2.95;;;;;;;7.99;100.00;98247.97;6195204;23;20019;-87
2024/02/10 07:02:24;;;;;;;4.68;3.00;;;;;;;8.06;100.00;98250.56;6245699;23;20039;-87
2024/02/10 07:04:52;;;;;;;7.20;3.35;;;;;;;8.01;100.00;98246.38;6218990;23;20018;-86
2024/02/10 07:07:19;;;;;;;9.52;3.08;;;;;;;7.92;100.00;98246.09;6218839;23;20005;-87
2024/02/10 07:09:45;;;;;;;9.57;3.42;;;;;;;7.90;100.00;98245.72;6193878;23;20027;-87
2024/02/10 07:12:10;;;;;;;5.22;3.47;;;;;;;7.88;100.00;98244.59;6246180;23;20012;-87
2024/02/10 07:14:36;;;;;;;9.50;3.30;;;;;;;7.94;100.00;98253.72;6221244;23;20461;-87
2024/02/10 07:17:02;;;;;;;11.95;3.45;;;;;;;8.02;100.00;98255.19;6197771;23;20464;-87
2024/02/10 07:19:31;;;;;;;5.80;3.08;;;;;;;8.00;100.00;98263.63;6221703;23;20035;-87
2024/02/10 07:22:36;;;;;;;8.98;3.95;;;;;;;7.92;100.00;98258.72;6195896;23;20119;-86
2024/02/10 07:25:19;;;;;;;6.93;3.42;;;;;;;8.00;100.00;98260.19;6198972;23;20070;-87
2024/02/10 07:28:12;;;;;;;5.93;2.55;;;;;;;8.06;100.00;98267.41;6232045;23;20036;-87
2024/02/10 07:30:46;;;;;;;7.55;3.42;;;;;;;7.86;100.00;98262.97;6266195;23;20008;-87
2024/02/10 07:33:29;;;;;;;11.27;3.03;;;;;;;7.96;100.00;98262.91;6239745;23;20015;-87
2024/02/10 07:36:16;;;;;;;7.13;3.08;;;;;;;8.02;100.00;98260.56;6231381;23;20366;-88
2024/02/10 07:38:41;;;;;;;8.93;3.22;;;;;;;8.07;100.00;98268.94;6244954;23;20004;-87
2024/02/10 07:41:07;;;;;;;6.88;3.10;;;;;;;8.08;100.00;98275.81;6246541;23;20023;-87
2024/02/10 07:43:32;;;;;;;6.35;2.58;;;;;;;8.15;100.00;98278.44;6217704;23;20016;-87
2024/02/10 07:45:58;;;;;;;6.22;2.97;;;;;;;8.23;100.00;98273.75;6217511;23;20670;-86
2024/02/10 07:48:24;;;;;;;6.15;2.90;;;;;;;8.34;100.00;98282.53;6218688;23;20001;-86
2024/02/10 07:50:52;;;;;;;10.10;3.08;;;;;;;8.34;100.00;98279.84;6213922;23;20016;-87
2024/02/10 07:53:18;;;;;;;7.10;3.25;;;;;;;8.28;100.00;98292.16;6213266;23;20179;-88
2024/02/10 07:55:46;;;;;;;8.25;3.58;;;;;;;8.27;100.00;98295.19;6212710;23;20008;-88
2024/02/10 07:58:14;;;;;;;7.40;2.53;;;;;;;8.29;100.00;98298.25;6214117;23;20078;-87
2024/02/10 08:00:41;;;;;;;15.20;3.78;;;;;;;8.45;100.00;98314.56;6212949;23;20103;-87
2024/02/10 08:03:07;;;;;;;9.73;4.13;;;;;;;8.38;100.00;98310.03;6187340;23;20001;-88
2024/02/10 08:05:32;;;;;;;5.30;2.85;;;;;;;8.44;100.00;98313.06;6187493;23;20013;-88
2024/02/10 08:08:00;;;;;;;8.20;3.05;;;;;;;8.52;100.00;98309.91;6212690;23;20059;-87
2024/02/10 08:10:28;;;;;;;10.07;3.47;;;;;;;8.45;100.00;98309.22;6224135;23;20004;-87
2024/02/10 08:12:54;;;;;;;11.93;3.85;;;;;;;8.51;100.00;98310.31;6187171;23;20135;-88
2024/02/10 08:15:23;;;;;;;12.07;3.63;;;;;;;8.52;100.00;98312.59;6211764;23;20622;-86
2024/02/10 08:17:49;;;;;;;8.70;4.05;;;;;;;8.58;100.00;98318.28;6213568;23;20391;-85
2024/02/10 08:20:14;;;;;;;12.82;3.17;;;;;;;8.57;100.00;98322.13;6212891;23;20008;-85
2024/02/10 08:22:40;;;;;;;7.45;2.97;;;;;;;8.66;100.00;98320.50;6210309;23;20039;-85
2024/02/10 08:25:07;;;;;;;7.57;3.50;;;;;;;8.60;100.00;98324.00;6221403;23;20011;-84
2024/02/10 08:27:33;;;;;;;7.55;3.50;;;;;;;8.67;100.00;98330.06;6185019;23;20433;-83
2024/02/10 08:29:59;;;;;;;11.48;3.88;;;;;;;8.75;100.00;98341.50;6211714;23;20013;-85
2024/02/10 08:32:26;;;;;;;6.95;2.63;;;;;;;8.79;100.00;98334.16;6222783;23;20188;-85
2024/02/10 08:34:52;;;;;;;12.18;4.35;;;;;;;8.86;100.00;98345.59;6212158;23;20012;-87
2024/02/10 08:37:18;;;;;;;9.98;2.78;;;;;;;8.93;100.00;98337.44;6210439;23;20021;-84
2024/02/10 08:39:45;;;;;;;7.95;2.92;;;;;;;8.86;100.00;98348.28;6209709;23;20573;-84
2024/02/10 08:42:12;;;;;;;10.95;4.22;;;;;;;8.93;100.00;98342.06;6185441;23;20085;-83
2024/02/10 08:44:37;;;;;;;8.63;3.55;;;;;;;8.95;100.00;98345.88;6219324;23;20462;-84
2024/02/10 08:47:05;;;;;;;9.60;3.30;;;;;;;8.94;100.00;98347.00;6191117;23;20083;-84
2024/02/10 08:49:35;;;;;;;8.95;3.47;;;;;;;8.99;100.00;98357.31;6226027;23;20385;-83
2024/02/10 08:52:14;;;;;;;7.50;3.20;;;;;;;9.05;100.00;98361.09;6216494;23;20031;-85
2024/02/10 08:54:39;;;;;;;10.52;3.53;;;;;;;9.03;100.00;98360.72;6191101;23;20012;-87
2024/02/10 08:57:09;;;;;;;8.82;3.53;;;;;;;9.05;100.00;98363.78;6252262;23;20087;-84
2024/02/10 08:59:40;;;;;;;11.80;3.95;;;;;;;9.09;100.00;98364.50;6190557;23;20012;-85
2024/02/10 09:02:07;;;;;;;8.52;3.85;;;;;;;9.16;100.00;98378.97;6189878;23;20018;-84
2024/02/10 09:04:34;;;;;;;9.18;3.90;;;;;;;9.21;100.00;98375.88;6217746;23;20043;-84
2024/02/10 09:07:00;;;;;;;12.30;4.13;;;;;;;9.25;100.00;98384.66;6193253;23;20012;-86
2024/02/10 09:09:29;;;;;;;11.45;3.17;;;;;;;9.21;100.00;98387.38;6216317;23;20054;-85
2024/02/10 09:11:55;;;;;;;9.88;3.55;;;;;;;9.26;100.00;98391.53;6190936;23;20078;-85
2024/02/10 09:14:21;;;;;;;10.35;2.95;;;;;;;9.20;100.00;98396.59;6243112;23;20021;-85
2024/02/10 09:16:46;;;;;;;7.25;2.85;;;;;;;9.23;100.00;98395.81;6215681;23;20017;-84
2024/02/10 09:19:16;;;;;;;9.00;3.80;;;;;;;9.24;100.00;98397.31;6242952;23;20010;-86
2024/02/10 09:21:45;;;;;;;5.97;2.92;;;;;;;9.27;100.00;98411.88;6215663;23;20015;-84
2024/02/10 09:24:13;;;;;;;9.52;2.47;;;;;;;9.29;100.00;98410.28;6242298;23;20008;-85
2024/02/10 09:26:43;;;;;;;7.30;3.35;;;;;;;9.33;100.00;98410.28;6215972;23;20079;-85
2024/02/10 09:29:08;;;;;;;7.22;3.83;;;;;;;9.36;100.00;98409.47;6215181;23;20038;-84
2024/02/10 09:31:34;;;;;;;10.00;3.35;;;;;;;9.36;100.00;98406.78;6243432;23;20095;-85
2024/02/10 09:34:01;;;;;;;8.45;3.28;;;;;;;9.38;100.00;98410.59;6216754;23;20082;-84
2024/02/10 09:36:28;;;;;;;7.40;3.10;;;;;;;9.44;100.00;98411.66;6217974;23;20371;-85
2024/02/10 09:38:53;;;;;;;7.47;2.85;;;;;;;9.45;100.00;98420.47;6217481;23;20082;-85
2024/02/10 09:41:19;;;;;;;8.55;3.22;;;;;;;9.50;100.00;98420.81;6217466;23;20658;-85
2024/02/10 09:43:48;;;;;;;14.50;3.70;;;;;;;9.52;100.00;98415.03;6190732;23;20008;-85
2024/02/10 09:46:14;;;;;;;13.38;4.00;;;;;;;9.55;100.00;98417.66;6244216;23;20012;-84
2024/02/10 09:48:50;;;;;;;13.02;3.92;;;;;;;9.48;100.00;98414.31;6217513;23;20077;-85
2024/02/10 09:51:16;;;;;;;10.52;3.90;;;;;;;9.53;100.00;98419.22;6192909;23;20019;-85
2024/02/10 09:53:41;;;;;;;7.43;3.50;;;;;;;9.46;100.00;98408.56;6217561;23;20058;-85
2024/02/10 09:56:12;;;;;;;9.38;4.03;;;;;;;9.45;100.00;98412.41;6228561;23;20004;-87
2024/02/10 10:18:35;;;;;;;;;;;;;;;;;;;;;
2024/02/10 10:21:49;;;;;;;8.63;3.22;;;;;;;9.63;100.00;98419.09;6211234;23;20019;-87
2024/02/10 10:24:40;;;;;;;11.77;3.00;;;;;;;9.67;100.00;98425.19;6224190;23;20017;-87
2024/02/10 10:27:05;;;;;;;8.82;3.47;;;;;;;9.70;100.00;98429.75;6163081;23;20044;-86
2024/02/10 10:30:31;;;;;;;;;;;;;;;;;;;;;
2024/02/10 10:33:38;;;;;;;11.70;3.17;;;;;;;9.79;100.00;98437.34;6224362;23;20019;-86
2024/02/10 10:43:46;;;;;;;5.70;2.45;;;;;;;9.97;100.00;98437.84;6214792;23;20351;-85
2024/02/10 10:47:05;;;;;;;7.00;2.63;;;;;;;10.07;100.00;98428.09;6188057;23;20011;-86
2024/02/10 10:53:42;;;;;;;6.30;2.88;;;;;;;10.17;100.00;98430.69;6154337;23;20028;-85
2024/02/10 10:56:26;;;;;;;8.43;3.10;;;;;;;10.10;100.00;98424.66;6228288;23;20024;-86
2024/02/10 10:59:29;;;;;;;10.20;3.63;;;;;;;10.22;100.00;98434.84;6224010;23;20013;-85
2024/02/10 11:03:14;;;;;;;8.55;3.13;;;;;;;10.28;100.00;98427.84;6160567;23;20020;-87
2024/02/10 11:06:11;;;;;;;7.50;3.55;;;;;;;10.35;100.00;98419.66;6195920;23;20013;-89
2024/02/10 11:08:39;;;;;;;9.07;3.45;;;;;;;10.36;100.00;98423.88;6213467;23;20122;-88
2024/02/10 11:11:08;;;;;;;8.02;3.28;;;;;;;10.33;100.00;98428.16;6162859;23;20040;-88
2024/02/10 11:13:35;;;;;;;9.68;3.10;;;;;;;10.38;100.00;98422.28;6187170;23;20008;-88
2024/02/10 11:16:04;;;;;;;12.57;3.90;;;;;;;10.37;100.00;98436.94;6162464;23;20004;-88
2024/02/10 11:18:33;;;;;;;8.60;4.10;;;;;;;10.38;100.00;98440.34;6187497;23;20008;-88
2024/02/10 11:21:26;;;;;;;7.30;3.03;;;;;;;10.42;100.00;98438.38;6187589;23;20016;-87
2024/02/10 11:28:36;;;;;;;5.95;2.67;;;;;;;10.53;100.00;98439.00;6102093;23;20073;-87
2024/02/10 11:31:40;;;;;;;8.05;3.00;;;;;;;10.43;100.00;98429.88;6124217;23;20084;-88
2024/02/10 11:37:48;;;;;;;9.88;3.03;;;;;;;10.32;100.00;98428.53;6193862;23;20017;-89
2024/02/10 11:40:30;;;;;;;14.30;3.40;;;;;;;10.39;100.00;98426.53;6221333;23;20016;-88
2024/02/10 11:43:24;;;;;;;;;;;;;;;;;;;;;
2024/02/10 11:49:43;;;;;;;8.10;2.72;;;;;;;10.54;100.00;98417.06;6206354;23;20008;-87
2024/02/10 11:52:36;;;;;;;8.75;3.88;;;;;;;10.60;100.00;98417.34;6186432;23;20336;-88
2024/02/10 11:55:11;;;;;;;8.07;2.85;;;;;;;10.56;100.00;98406.63;6212997;23;20015;-88
2024/02/10 11:58:05;;;;;;;;;;;;;;;;;;;;;
2024/02/10 12:00:37;;;;;;;7.82;3.53;;;;;;;10.59;100.00;98407.72;6210431;23;20355;-87
2024/02/10 12:03:58;;;;;;;9.45;3.20;;;;;;;10.71;100.00;98405.22;6213360;23;20027;-87
2024/02/10 12:06:49;;;;;;;10.57;3.30;;;;;;;10.87;100.00;98401.88;6204050;23;20447;-87
2024/02/10 12:09:21;;;;;;;9.82;3.28;;;;;;;10.88;100.00;98414.16;6213982;23;20008;-87
2024/02/10 12:12:15;;;;;;;3.38;2.40;;;;;;;10.82;100.00;98413.88;6173992;23;20027;-87
2024/02/10 12:14:41;;;;;;;7.22;2.83;;;;;;;10.86;100.00;98411.88;6197379;23;20008;-88
2024/02/10 12:17:06;;;;;;;9.25;3.13;;;;;;;10.89;100.00;98413.00;6189218;23;20346;-88
2024/02/10 12:20:12;;;;;;;10.75;4.13;;;;;;;10.94;100.00;98409.06;6211700;23;20340;-87
2024/02/10 12:22:46;;;;;;;8.73;3.38;;;;;;;11.04;100.00;98416.94;6175266;23;20012;-88
2024/02/10 12:25:29;;;;;;;9.60;3.70;;;;;;;10.95;100.00;98414.03;6186384;23;20699;-85
2024/02/10 12:28:04;;;;;;;11.30;3.83;;;;;;;10.97;100.00;98422.47;6184999;23;20004;-88
2024/02/10 12:31:06;;;;;;;8.10;3.13;;;;;;;11.10;100.00;98431.47;6212498;23;20013;-88
2024/02/10 12:33:50;;;;;;;11.23;3.40;;;;;;;11.15;100.00;98422.16;6210977;23;20016;-87
2024/02/10 12:36:36;;;;;;;7.70;3.20;;;;;;;11.20;100.00;98435.91;6223840;23;20019;-88
2024/02/10 12:39:51;;;;;;;9.07;3.17;;;;;;;11.25;100.00;98427.31;6213284;23;20035;-87
2024/02/10 12:42:31;;;;;;;11.18;3.22;;;;;;;11.25;100.00;98432.72;6212803;23;20012;-89
2024/02/10 12:45:21;;;;;;;5.40;3.47;;;;;;;11.20;100.00;98424.34;6211637;23;20447;-87
2024/02/10 12:48:15;;;;;;;10.07;2.50;;;;;;;11.20;100.00;98425.13;6198625;23;20012;-87
2024/02/10 12:54:39;;;;;;;5.78;2.67;;;;;;;11.24;100.00;98420.44;6223791;23;20039;-89
2024/02/10 12:57:18;;;;;;;8.73;3.20;;;;;;;11.23;100.00;98418.91;6187288;23;20016;-89
2024/02/10 12:59:55;;;;;;;7.40;2.67;;;;;;;11.23;100.00;98416.22;6187537;23;20222;-88
2024/02/10 13:02:38;;;;;;;9.40;3.80;;;;;;;11.35;100.00;98417.53;6162785;23;20012;-89
2024/02/10 13:05:41;;;;;;;9.10;3.25;;;;;;;11.26;100.00;98420.78;6223518;23;20017;-88
2024/02/10 13:08:38;;;;;;;13.18;3.42;;;;;;;11.09;100.00;98415.72;6213366;23;20630;-89
2024/02/10 13:11:39;;;;;;;8.93;3.53;;;;;;;10.93;100.00;98426.41;6189952;23;20013;-89
2024/02/10 13:14:18;;;;;;;7.18;3.13;;;;;;;10.89;100.00;98426.47;6187087;23;20012;-89
2024/02/10 13:24:24;;;;;;;7.53;2.47;;;;;;;10.93;100.00;98410.22;6127663;23;20008;-89
2024/02/10 13:27:18;;;;;;;10.98;4.25;;;;;;;10.86;100.00;98417.25;6184960;23;20067;-87
2024/02/10 13:30:10;;;;;;;9.32;3.22;;;;;;;10.73;100.00;98410.97;6212437;23;20019;-88
2024/02/10 13:32:37;;;;;;;11.60;3.88;;;;;;;10.83;100.00;98411.94;6196487;23;20012;-85
2024/02/10 13:35:09;;;;;;;6.10;3.17;;;;;;;10.92;100.00;98411.41;6172818;23;20009;-85
2024/02/10 14:12:45;;;;;;;9.95;4.45;;;;;;;10.87;100.00;98375.72;6212722;23;20020;-85
2024/02/10 14:15:30;;;;;;;10.95;3.08;;;;;;;10.84;100.00;98375.75;6186074;23;20043;-86
2024/02/10 14:21:17;;;;;;;5.57;2.45;;;;;;;10.77;100.00;98384.75;6223593;23;20406;-86
2024/02/10 14:27:00;;;;;;;9.93;2.65;;;;;;;10.87;100.00;98374.94;6178537;23;20024;-87
2024/02/10 14:29:56;;;;;;;10.00;3.25;;;;;;;10.85;100.00;98383.44;6193001;23;20023;-86
2024/02/10 14:32:41;;;;;;;7.53;3.33;;;;;;;10.79;100.00;98390.47;6213494;23;20066;-87
2024/02/10 14:35:44;;;;;;;6.72;2.75;;;;;;;10.68;100.00;98397.94;6213013;23;20347;-85
2024/02/10 14:38:24;;;;;;;5.75;3.08;;;;;;;10.74;100.00;98399.00;6210305;23;20451;-86
2024/02/10 14:41:13;;;;;;;6.88;2.83;;;;;;;10.76;100.00;98396.66;6213182;23;20019;-87
2024/02/10 14:44:06;;;;;;;8.27;2.25;;;;;;;10.60;100.00;98401.19;6212487;23;20020;-86
2024/02/10 14:46:44;;;;;;;7.25;2.83;;;;;;;10.67;100.00;98411.81;6187682;23;20447;-85
2024/02/10 14:50:04;;;;;;;8.30;3.38;;;;;;;10.75;100.00;98405.94;6183895;23;20022;-84
2024/02/10 14:52:33;;;;;;;7.97;2.53;;;;;;;10.55;100.00;98410.47;6186937;23;20012;-87
2024/02/10 14:54:59;;;;;;;7.40;2.72;;;;;;;10.65;100.00;98412.25;6213811;23;20013;-86
2024/02/10 14:57:46;;;;;;;6.47;2.20;;;;;;;10.69;100.00;98412.94;6187073;23;20338;-86
2024/02/10 15:00:12;;;;;;;4.82;2.47;;;;;;;10.73;100.00;98419.03;6161792;23;20016;-86
2024/02/10 15:03:46;;;;;;;4.57;2.00;;;;;;;10.74;100.00;98420.53;6212965;23;20005;-84
2024/02/10 15:06:23;;;;;;;5.30;2.17;;;;;;;10.72;100.00;98422.16;6177109;23;20012;-86
2024/02/10 15:08:50;;;;;;;5.88;2.63;;;;;;;10.79;100.00;98422.78;6161259;23;20004;-86
2024/02/10 15:11:42;;;;;;;12.13;2.58;;;;;;;10.67;100.00;98420.66;6223866;23;20000;-86
2024/02/10 15:14:09;;;;;;;4.93;2.10;;;;;;;10.73;100.00;98424.41;6198399;23;20009;-86
2024/02/10 15:16:34;;;;;;;6.35;3.05;;;;;;;10.52;100.00;98430.16;6186828;23;20067;-85
2024/02/10 15:19:05;;;;;;;4.45;2.33;;;;;;;10.54;100.00;98435.88;6161307;23;20024;-86
2024/02/10 15:21:41;;;;;;;4.95;2.58;;;;;;;10.55;100.00;98437.41;6187479;23;20013;-86
2024/02/10 15:24:12;;;;;;;6.93;3.13;;;;;;;10.60;100.00;98447.72;6223575;23;20015;-86
2024/02/10 15:30:20;;;;;;;4.82;2.63;;;;;;;10.57;100.00;98459.28;6213797;23;20091;-86
2024/02/10 15:39:51;;;;;;;5.72;2.13;;;;;;;10.33;100.00;98462.34;6150159;23;20160;-86
2024/02/10 15:42:23;;;;;;;7.95;3.30;;;;;;;10.28;100.00;98471.63;6120683;23;20017;-86
2024/02/10 15:45:15;;;;;;;5.45;2.85;;;;;;;10.33;100.00;98465.81;6126945;23;20064;-86
2024/02/10 15:47:42;;;;;;;9.02;2.63;;;;;;;10.40;100.00;98478.38;6168357;23;20043;-86
2024/02/10 15:50:11;;;;;;;8.02;2.63;;;;;;;10.23;100.00;98474.78;6187673;23;20012;-86
2024/02/10 16:05:19;;;;;;;4.63;2.10;;;;;;;10.07;100.00;98487.25;6074589;23;20139;-86
2024/02/10 16:15:58;;;;;;;7.43;3.40;;;;;;;10.01;100.00;98498.47;5988292;23;20060;-87
2024/02/10 17:34:41;;;;;;;8.77;3.00;;;;;;;9.85;100.00;98506.34;6193839;22;20024;-86
2024/02/10 17:37:11;;;;;;;9.68;3.97;;;;;;;9.95;100.00;98508.16;6211657;23;20372;-86
2024/02/10 17:39:43;;;;;;;7.57;3.03;;;;;;;9.91;100.00;98506.69;6213539;23;20019;-85
2024/02/10 17:42:13;;;;;;;5.80;2.75;;;;;;;9.86;100.00;98513.25;6187574;23;20012;-87
2024/02/10 17:44:39;;;;;;;4.70;2.78;;;;;;;9.88;100.00;98513.63;6212454;23;20035;-85
2024/02/10 17:47:07;;;;;;;8.07;3.33;;;;;;;9.83;100.00;98518.69;6211895;23;20079;-86
2024/02/10 17:49:44;;;;;;;7.25;3.72;;;;;;;9.83;100.00;98518.69;6187012;23;20028;-85
2024/02/10 17:52:18;;;;;;;4.22;2.45;;;;;;;9.83;100.00;98527.50;6213343;23;20037;-86
2024/02/10 17:54:54;;;;;;;5.20;2.65;;;;;;;9.78;100.00;98529.88;6224542;23;20066;-85
2024/02/10 17:57:23;;;;;;;6.78;2.85;;;;;;;9.58;100.00;98520.91;6228841;23;20027;-87
2024/02/10 17:59:58;;;;;;;7.82;3.28;;;;;;;9.55;100.00;98530.50;6226987;23;20004;-85
2024/02/10 18:02:38;;;;;;;4.55;1.95;;;;;;;9.43;100.00;98522.94;6215657;23;20107;-84
2024/02/10 18:05:16;;;;;;;7.78;2.45;;;;;;;9.51;100.00;98526.31;6214792;23;20016;-85
2024/02/10 18:07:42;;;;;;;6.20;2.83;;;;;;;9.46;100.00;98516.03;6212845;23;20099;-84
2024/02/10 18:10:22;;;;;;;13.07;3.70;;;;;;;9.45;100.00;98520.63;6212170;23;20043;-83
2024/02/10 18:12:48;;;;;;;4.57;2.13;;;;;;;9.43;100.00;98531.00;6214362;23;20009;-85